Bookmark and Share
Track history (hours):
 

Sembria

Last reported at 2014-Apr-18 00:31 UTC. Time now 2014-Apr-19 09:36 UTC.
Position N 36°60' E 002°49'.

Length 107 m; draft 6.5 m.

Type: Cargo ship. MMSI: 304010760.

NotesDate/timePositionNaut miles runAvg speedWind from/ knotsBaromVisibWave heightAir tempDewpointWater temp
2014-Apr-18 00:31N 36°60' E 002°49'19 9.6
2014-Apr-17 22:33N 36°56' E 002°26'10 9.6
2014-Apr-17 21:32N 36°55' E 002°14'21 9.5
2014-Apr-17 19:20N 36°52' E 001°48'339 9.6
2014-Apr-16 08:10N 35°59' W 005°09'711.4
2014-Apr-16 07:33N 35°58' W 005°17'1312.5
2014-Apr-16 06:31N 35°56' W 005°33'1712.2
2014-Apr-16 05:07N 35°53' W 005°54'  
2014-Apr-11 11:12N 50°14' W 001°41'2012.1
2014-Apr-11 09:33N 50°20' W 001°11'8 8.3
2014-Apr-11 08:34N 50°23' W 000°59'7 6.7
2014-Apr-11 07:33N 50°23' W 000°49'47 9.4
2014-Apr-11 02:33N 50°36' E 000°23'1111.1
2014-Apr-11 01:33N 50°40' E 000°39'1110.9
2014-Apr-11 00:33N 50°47' E 000°53'1010.2
2014-Apr-10 23:33N 50°53' E 001°06'10 9.6
2014-Apr-10 22:34N 50°59' E 001°17'9 8.8
2014-Apr-10 21:33N 51°04' E 001°28'9 9.1
2014-Apr-10 20:33N 51°10' E 001°39'9 9.3
2014-Apr-10 19:33N 51°17' E 001°49'1110.7
2014-Apr-10 18:33N 51°27' E 001°57'1311.7
2014-Apr-10 17:24N 51°37' E 002°12'1011.7
2014-Apr-10 16:32N 51°45' E 002°22'10110.1
2014-Apr-10 06:33N 53°02' E 004°08'1010.3
2014-Apr-10 05:33N 53°09' E 004°21'29 9.2
2014-Apr-10 02:25N 53°31' E 004°50'8 8.3
2014-Apr-10 01:29N 53°34' E 005°02'8 8.5
2014-Apr-10 00:33N 53°37' E 005°14'9 8.5
2014-Apr-09 23:33N 53°40' E 005°28'9 9.1
2014-Apr-09 22:33N 53°43' E 005°42'9 9.2
2014-Apr-09 21:32N 53°46' E 005°57'47 7.8
2014-Apr-09 15:33N 53°58' E 007°14'7 7.2
2014-Apr-09 14:33N 53°59' E 007°26'8 7.6
2014-Apr-09 13:33N 54°01' E 007°38'8 8.1
2014-Apr-09 12:34N 54°02' E 007°52'8 8.4
2014-Apr-09 11:33N 54°01' E 008°06'9 9.3
2014-Apr-09 10:33N 53°60' E 008°22'8 7.9
2014-Apr-09 09:33N 53°59' E 008°35'10 9.5
2014-Apr-09 08:33N 53°51' E 008°45'8 7.8
2014-Apr-09 07:33N 53°51' E 008°59'6 6.5
2014-Apr-09 06:33N 53°54' E 009°09'3 2.9
2014-Apr-09 05:33N 53°56' E 009°12'8 7.8
2014-Apr-09 04:33N 54°03' E 009°18'7 6.8
2014-Apr-09 03:33N 54°09' E 009°22'4 3.7
2014-Apr-09 02:33N 54°11' E 009°27'64 7.0
2014-Apr-08 17:28N 54°36' E 011°07'8 8.7
2014-Apr-08 16:33N 54°33' E 011°20'9 9.5
2014-Apr-08 15:33N 54°29' E 011°35'9 8.9
2014-Apr-08 14:33N 54°26' E 011°49'8 8.5
2014-Apr-08 13:33N 54°27' E 012°04'8 7.6
2014-Apr-08 12:33N 54°32' E 012°13'34 8.2
2014-Apr-08 08:27N 54°47' E 013°05'9 9.8
2014-Apr-08 07:33N 54°47' E 013°20'9 9.1
2014-Apr-08 06:33N 54°43' E 013°35'1010.2
2014-Apr-08 05:33N 54°35' E 013°45'1010.4
2014-Apr-08 04:33N 54°26' E 013°53'1010.4
2014-Apr-08 03:33N 54°17' E 014°02'1010.3
2014-Apr-08 02:33N 54°07' E 014°10'8 8.1
2014-Apr-08 01:33N 53°60' E 014°15'7 6.5
2014-Apr-08 00:33N 53°53' E 014°16'  

Dump ship's entire track history

sailing weather and tide predictions

Sembria — V2QG7 — position and weather